Terminal Aerodrome Forecast
Issued by NWS Los Angeles, CA

Home | Current Version | Previous Version | Text Only | Print | Product List | Glossary On
Versions: 1 2 3 4 5 6 7 8 9 10 11 12 13 14 15 16 17 18 19 20 21 22 23 24 25 26 27 28 29 30 31 32 33 34 35 36 37 38 39
000
FTUS46 KLOX 051742
TAFSMX
TAF
KSMX 051742Z 0518/0618 14005KT P6SM SCT025 BKN060
     FM051930 26005KT P6SM VCSH BKN025 OVC040
     FM052200 25011KT P6SM -SHRA VCTS SCT025 OVC040CB
     FM060900 25005KT P6SM -SHRA VCTS SCT012 BKN025CB=

USA.gov is the U.S. government's official web portal to all federal, state and local government web resources and services.